Nearby METAR Reports

 

KMRB - Martinsburg, West Virginia, USA
Distance from station: NNW 9mi, 14km
Updated: 09/25/2018 4:53am
Light rain, Overcast
Light rain, Overcast
 Wind from N
Wind: N 5 mph , 7 km/h
Temperature: 61°F , 16°C
Dew Point: 61°F , 16°C
Humidity: 100%
Barometer: 30.25 inHg , 1024.4 hPa
Summary: Light rain
Clouds: Overcast
Visibility: 7 miles , 11 km
Cloud details: Overcast 300 ft
2018/09/25 08:53 KMRB 250853Z AUTO 36004KT 7SM -RA OVC003 16/16 A3025 RMK AO2 RAB27 SLP242 P0000 60003 T01610156 56017
KOKV - Winchester Rgnl, Virginia, USA
Distance from station: SW 17mi, 28km
Updated: 09/25/2018 5:35am
Rain, Overcast
Rain, Overcast
 Wind from calm
Wind: Calm
Temperature: 59°F , 15°C
Dew Point: 59°F , 15°C
Humidity: 100%
Barometer: 30.27 inHg , 1025.1 hPa
Summary: Rain
Clouds: Overcast
Visibility: 4 miles , 6 km
Cloud details: Overcast 200 ft
2018/09/25 09:35 KOKV 250935Z AUTO 00000KT 4SM RA OVC002 15/15 A3027 RMK AO2 P0001
 
KJYO - Leesburg/Godfrey, Virginia, USA
Distance from station: SE 23mi, 38km
Updated: 09/25/2018 5:35am
Overcast
Overcast
 Wind from calm
Wind: Calm
Temperature: 59°F , 15°C
Dew Point: 59°F , 15°C
Humidity: 100%
Barometer: 30.26 inHg , 1024.7 hPa
Clouds: Overcast
Visibility: 7 miles , 11 km
Cloud details: Overcast 600 ft
2018/09/25 09:35 KJYO 250935Z AUTO 00000KT 7SM OVC006 15/15 A3026 RMK AO2
KFDK - Frederick, Maryland, USA
Distance from station: ENE 30mi, 48km
Updated: 09/24/2018 8:50pm
NOT Current
Overcast
Overcast
 Wind from NNE
Wind: NNE 3 mph , 6 km/h
Temperature: 64°F , 18°C
Dew Point: 63°F , 17°C
Humidity: 94%
Barometer: 30.38 inHg , 1028.8 hPa
Clouds: Overcast
Visibility: 7 miles , 11 km
Cloud details: Overcast 1100 ft
2018/09/25 00:50 KFDK 250050Z 03003KT 7SM OVC011 18/17 A3038
 
KHGR - Hagerstown, Maryland, USA
Distance from station: NNE 30mi, 48km
Updated: 09/25/2018 4:53am
Mist, Overcast
Mist, Overcast
 Wind from N
Wind: N 6 mph , 9 km/h
Temperature: 63°F , 17°C
Dew Point: 59°F , 15°C
Humidity: 88%
Barometer: 30.26 inHg , 1024.7 hPa
Summary: Mist
Clouds: Overcast
Visibility: 6 miles , 10 km
Cloud details: Overcast 1700 ft
2018/09/25 08:53 KHGR 250853Z AUTO 01005KT 6SM BR OVC017 17/15 A3026 RMK AO2 RAE25 SLP255 P0000 60001 T01670150 58016 $
KIAD - Wash Dc/Dulles, Virginia, USA
Distance from station: SE 34mi, 55km
Updated: 09/25/2018 4:52am
Light rain, Mist, Overcast
Light rain, Mist, Overcast
 Wind from WNW
Wind: WNW 3 mph , 6 km/h
Temperature: 66°F , 19°C
Dew Point: 66°F , 19°C
Humidity: 100%
Barometer: 30.25 inHg , 1024.4 hPa
Summary: Light rain, Mist
Clouds: Overcast
Visibility: 5 miles , 8 km
Cloud details: Overcast 600 ft
2018/09/25 08:52 KIAD 250852Z 29003KT 5SM -RA BR OVC006 19/19 A3025 RMK AO2 DZE50RAB50 CIG 004V009 SLP242 P0003 60018 T01890189 56013
 
KRSP - Nsf Thurmont, Maryland, USA
Distance from station: NE 34mi, 55km
Updated: 09/25/2018 4:54am
Light rain, Overcast
Light rain, Overcast
 Wind from varies
Wind: varies 6 mph , 9 km/h
Temperature: 57°F , 14°C
Dew Point: 57°F , 14°C
Humidity: 100%
Barometer: 30.31 inHg , 1026.4 hPa
Summary: Light rain
Clouds: Overcast
Cloud details: Overcast 300 ft
2018/09/25 08:54 KRSP 250854Z AUTO VRB05KT -RA OVC003 14/14 A3031 RMK AO2 SLP267 P0010 60033 T01440144 58009 $
KGAI - Gaithersburg, Maryland, USA
Distance from station: E 40mi, 64km
Updated: 09/25/2018 4:56am
Light rain, Overcast
Light rain, Overcast
 Wind from calm
Wind: Calm
Temperature: 64°F , 18°C
Dew Point: 63°F , 17°C
Humidity: 94%
Barometer: 30.27 inHg , 1025.1 hPa
Summary: Light rain
Clouds: Overcast
Visibility: 10 miles , 16 km
Cloud details: Overcast 400 ft
2018/09/25 08:56 KGAI 250856Z AUTO 00000KT 10SM -RA OVC004 18/17 A3027 RMK AO2 SLP277 P0002 60009 T01780172 55016
 
KRYT - Fountain Dale, Pennsylvania, USA
Distance from station: NE 40mi, 64km
Updated: 11/13/2017 7:53am
NOT Current
Mist, Overcast
Mist, Overcast
 Wind from calm
Wind: Calm
Temperature: 37°F , 3°C
Dew Point: 34°F , 1°C
Humidity: 87%
Barometer: 30.31 inHg , 1026.4 hPa
Summary: Mist
Clouds: Overcast
Visibility: 5 miles , 8 km
Cloud details: Overcast 700 ft
2017/11/13 12:53 KRYT 131253Z AUTO 00000KT 5SM BR OVC007 03/01 A3031 RMK AO2 SLP275 T00280011 TSNO $
KHEF - Manassas Muni, Virginia, USA
Distance from station: SSE 44mi, 72km
Updated: 09/25/2018 4:56am
Overcast
Overcast
 Wind from NE
Wind: NE 3 mph , 6 km/h
Temperature: 66°F , 19°C
Dew Point: 66°F , 19°C
Humidity: 100%
Barometer: 30.24 inHg , 1024 hPa
Clouds: Overcast
Visibility: 10 miles , 16 km
Cloud details: Overcast 700 ft
2018/09/25 08:56 KHEF 250856Z AUTO 05003KT 10SM OVC007 19/19 A3024 RMK AO2 SLP251 6//// T01940189 56015 PNO $
 
KHWY - Warrenton, Virginia, USA
Distance from station: SSE 50mi, 80km
Updated: 09/25/2018 5:35am
Heavy rain, Overcast
Heavy rain, Overcast
 Wind from calm
Wind: Calm
Temperature: 68°F , 20°C
Dew Point: 64°F , 18°C
Humidity: 88%
Barometer: 30.24 inHg , 1024 hPa
Summary: Heavy rain
Clouds: Overcast
Visibility: 3 miles , 5 km
Cloud details: Overcast 500 ft
2018/09/25 09:35 KHWY 250935Z AUTO 00000KT 3SM +RA OVC005 20/18 A3024 RMK AO2 P0016 T01980183